Centralia, IL

8:36 PM CST on December 10, 2016 (GMT -0600)
Centralia Municipal

Weather History for KENL - December, 2012

Change the Weather History Date:

Friday, December 14, 2012

  Actual Average (KSLO) Record (KSLO)
Temperature  
Mean Temperature 42 °F -  
Max Temperature 54 °F 44 °F 70 °F (1984)
Min Temperature 29 °F 26 °F -1 °F (1985)
Degree Days  
Heating Degree Days 24    
Moisture  
Dew Point 31 °F    
Average Humidity 61    
Maximum Humidity 88    
Minimum Humidity 43    
Precipitation  
Precipitation 0.00 in - - ()
Sea Level Pressure  
Sea Level Pressure 30.17 in    
Wind  
Wind Speed 6 mph (SSE)    
Max Wind Speed 14 mph    
Max Gust Speed -    
Visibility 10 miles    
Events      
Averages and records for this station are not official NWS values.
T = Trace of Precipitation, MM = Missing Value Source: NWS Daily Summary

Daily Weather History Graph

Daily Weather History Graph

Search for Another Location

Airport or City:

Trip Planner

Search our weather history database for the weather conditions in past years. The results will help you decide how hot, cold, wet, or windy it might be!

Date:

Astronomy

Dec. 14, 2012 Rise Set
Actual Time 7:06 AM CST 4:36 PM CST
Civil Twilight 6:36 AM CST 5:06 PM CST
Nautical Twilight 6:03 AM CST 5:39 PM CST
Astronomical Twilight 5:31 AM CST 6:11 PM CST
Moon 8:11 AM CST (12/14) 6:27 PM CST (12/14)
Length of Visible Light 10h 29m
Length of Day
9h 29m
Waxing Crescent, 3% of the Moon is Illuminated
Dec 14
Waxing Crescent
Dec 19
First Quarter
Dec 28
Full
Jan 4
Last Quarter
Jan 11
New

Hourly Weather History & Observations

Time (CST) Temp. Windchill Dew Point Humidity Pressure Visibility Wind Dir Wind Speed Gust Speed Precip Events Conditions
12:15 AM 37.8 °F 33.3 °F 28.8 °F 70% 30.23 in 10.0 mi SSW 5.8 mph - N/A   Clear
12:35 AM 36.5 °F 32.7 °F 28.6 °F 73% 30.24 in 10.0 mi South 4.6 mph - N/A   Clear
12:55 AM 36.5 °F - 28.4 °F 72% 30.24 in 10.0 mi Calm Calm - N/A   Clear
1:15 AM 36.1 °F 33.5 °F 28.4 °F 73% 30.24 in 10.0 mi SSE 3.5 mph - N/A   Clear
1:35 AM 34.3 °F 31.4 °F 28.2 °F 78% 30.25 in 10.0 mi SSE 3.5 mph - N/A   Clear
1:55 AM 33.3 °F - 27.3 °F 79% 30.25 in 10.0 mi Calm Calm - N/A   Clear
2:15 AM 30.9 °F 27.5 °F 27.0 °F 85% 30.25 in 10.0 mi SE 3.5 mph - N/A   Clear
2:35 AM 30.9 °F 26.2 °F 27.5 °F 87% 30.24 in 10.0 mi SE 4.6 mph - N/A   Clear
2:55 AM 29.7 °F 26.1 °F 26.6 °F 88% 30.24 in 10.0 mi SE 3.5 mph - N/A   Clear
3:15 AM 29.8 °F 24.9 °F 26.6 °F 88% 30.23 in 10.0 mi SSE 4.6 mph - N/A   Clear
3:35 AM 30.0 °F 26.5 °F 26.6 °F 87% 30.23 in 10.0 mi SE 3.5 mph - N/A   Clear
3:55 AM 32.7 °F 28.3 °F 27.9 °F 82% 30.23 in 10.0 mi SSE 4.6 mph - N/A   Clear
4:15 AM 34.7 °F 30.6 °F 27.9 °F 76% 30.23 in 10.0 mi SSE 4.6 mph - N/A   Clear
4:35 AM 34.2 °F 29.0 °F 28.0 °F 78% 30.23 in 10.0 mi SSE 5.8 mph - N/A   Clear
4:55 AM 35.6 °F 30.7 °F 28.4 °F 75% 30.23 in 10.0 mi SSE 5.8 mph - N/A   Clear
5:15 AM 34.7 °F 30.6 °F 28.6 °F 78% 30.23 in 10.0 mi SSE 4.6 mph - N/A   Clear
5:35 AM 35.1 °F 28.6 °F 28.4 °F 77% 30.23 in 10.0 mi SSE 8.1 mph - N/A   Clear
5:55 AM 35.6 °F 29.2 °F 28.8 °F 76% 30.23 in 10.0 mi SSE 8.1 mph - N/A   Clear
6:15 AM 35.1 °F 30.1 °F 28.6 °F 77% 30.23 in 10.0 mi SSE 5.8 mph - N/A   Clear
6:35 AM 35.1 °F 28.6 °F 28.4 °F 77% 30.23 in 10.0 mi SSE 8.1 mph - N/A   Clear
6:55 AM 35.6 °F 29.2 °F 28.9 °F 77% 30.23 in 10.0 mi SSE 8.1 mph - N/A   Clear
7:15 AM 36.0 °F 29.6 °F 29.1 °F 76% 30.23 in 10.0 mi SSE 8.1 mph - N/A   Clear
7:35 AM 36.9 °F 32.2 °F 29.3 °F 74% 30.24 in 10.0 mi South 5.8 mph - N/A   Clear
7:55 AM 38.1 °F 34.6 °F 30.0 °F 73% 30.25 in 10.0 mi South 4.6 mph - N/A   Clear
8:15 AM 39.9 °F 35.1 °F 30.2 °F 68% 30.25 in 10.0 mi South 6.9 mph - N/A   Clear
8:35 AM 40.5 °F 36.5 °F 30.4 °F 67% 30.25 in 10.0 mi South 5.8 mph - N/A   Clear
8:55 AM 42.1 °F 39.2 °F 30.7 °F 64% 30.25 in 10.0 mi South 4.6 mph - N/A   Clear
9:15 AM 43.7 °F 40.3 °F 31.1 °F 61% 30.25 in 10.0 mi South 5.8 mph - N/A   Clear
9:35 AM 44.8 °F 41.0 °F 31.3 °F 59% 30.24 in 10.0 mi South 6.9 mph - N/A   Clear
9:55 AM 46.4 °F 42.9 °F 31.8 °F 57% 30.25 in 10.0 mi South 6.9 mph - N/A   Clear
10:15 AM 47.7 °F - 32.0 °F 55% 30.24 in 10.0 mi South 5.8 mph - N/A   Clear
10:35 AM 49.3 °F - 32.0 °F 51% 30.23 in 10.0 mi South 6.9 mph - N/A   Clear
10:55 AM 50.2 °F - 32.0 °F 50% 30.23 in 10.0 mi South 8.1 mph - N/A   Unknown
11:15 AM 50.9 °F - 32.2 °F 49% 30.21 in 10.0 mi South 8.1 mph - N/A   Unknown
11:35 AM 52.2 °F - 32.4 °F 47% 30.20 in 10.0 mi South 10.4 mph - N/A   Clear
11:55 AM 53.2 °F - 32.5 °F 45% 30.19 in 10.0 mi South 10.4 mph - N/A   Clear
12:15 PM 54.7 °F - 33.6 °F 45% 30.19 in 10.0 mi South 10.4 mph - N/A   Unknown
12:35 PM 54.0 °F - 33.1 °F 45% 30.18 in 10.0 mi SSW 11.5 mph - N/A   Unknown
12:55 PM 54.1 °F - 33.1 °F 45% 30.17 in 10.0 mi South 8.1 mph - N/A   Unknown
1:15 PM 54.1 °F - 33.6 °F 46% 30.16 in 10.0 mi South 8.1 mph - N/A   Unknown
1:35 PM 54.5 °F - 32.4 °F 43% 30.16 in 10.0 mi South 13.8 mph - N/A   Clear
1:55 PM 54.0 °F - 32.4 °F 44% 30.15 in 10.0 mi South 10.4 mph - N/A   Clear
2:15 PM 53.2 °F - 31.8 °F 44% 30.14 in 10.0 mi South 10.4 mph - N/A   Clear
2:35 PM 53.1 °F - 31.3 °F 43% 30.13 in 10.0 mi South 12.7 mph - N/A   Clear
2:55 PM 52.5 °F - 31.1 °F 44% 30.13 in 10.0 mi South 9.2 mph - N/A   Clear
3:15 PM 51.8 °F - 30.0 °F 43% 30.13 in 10.0 mi South 9.2 mph - N/A   Clear
3:35 PM 51.4 °F - 29.7 °F 43% 30.12 in 10.0 mi SSE 6.9 mph - N/A   Clear
3:55 PM 50.7 °F - 30.6 °F 46% 30.12 in 10.0 mi SSE 5.8 mph - N/A   Clear
4:15 PM 50.7 °F - 30.2 °F 45% 30.12 in 10.0 mi SSE 8.1 mph - N/A   Clear
4:35 PM 50.2 °F - 29.1 °F 44% 30.12 in 10.0 mi SSE 8.1 mph - N/A   Clear
4:55 PM 48.9 °F - 29.5 °F 47% 30.12 in 10.0 mi SSE 6.9 mph - N/A   Clear
5:15 PM 47.3 °F - 30.0 °F 51% 30.12 in 10.0 mi SSE 5.8 mph - N/A   Clear
5:35 PM 46.8 °F - 30.4 °F 53% 30.12 in 10.0 mi SE 5.8 mph - N/A   Clear
5:55 PM 47.5 °F - 30.2 °F 51% 30.10 in 10.0 mi ESE 6.9 mph - N/A   Clear
6:15 PM 47.8 °F - 31.1 °F 52% 30.09 in 10.0 mi SE 9.2 mph - N/A   Clear
6:35 PM 48.2 °F - 31.6 °F 53% 30.09 in 10.0 mi SE 9.2 mph - N/A   Clear
6:55 PM 48.4 °F - 31.6 °F 52% 30.08 in 10.0 mi SE 9.2 mph - N/A   Clear
7:15 PM 48.2 °F - 32.0 °F 54% 30.09 in 10.0 mi SSE 9.2 mph - N/A   Clear
7:35 PM 48.6 °F - 32.0 °F 53% 30.09 in 10.0 mi SSE 6.9 mph - N/A   Clear
7:55 PM 48.6 °F - 32.0 °F 53% 30.09 in 10.0 mi SSE 9.2 mph - N/A   Clear
8:15 PM 48.2 °F - 32.0 °F 54% 30.08 in 10.0 mi SSE 9.2 mph - N/A   Clear
8:35 PM 48.4 °F - 32.4 °F 54% 30.08 in 10.0 mi SSE 6.9 mph - N/A   Clear
8:55 PM 47.8 °F - 32.9 °F 56% 30.07 in 10.0 mi SE 6.9 mph - N/A   Clear
9:15 PM 48.2 °F - 32.9 °F 55% 30.08 in 10.0 mi South 4.6 mph - N/A   Clear
9:35 PM 47.3 °F - 33.3 °F 58% 30.07 in 10.0 mi SSE 5.8 mph - N/A   Clear
9:55 PM 47.3 °F - 33.3 °F 58% 30.06 in 10.0 mi SSE 4.6 mph - N/A   Scattered Clouds
10:15 PM 47.5 °F - 33.4 °F 58% 30.06 in 10.0 mi SE 3.5 mph - N/A   Mostly Cloudy
10:35 PM 47.8 °F - 33.4 °F 57% 30.06 in 10.0 mi SSE 3.5 mph - N/A   Light Drizzle
10:55 PM 47.1 °F - 33.6 °F 59% 30.07 in 10.0 mi South 5.8 mph - N/A   Scattered Clouds
11:15 PM 47.3 °F - 33.8 °F 59% 30.07 in 10.0 mi SSE 5.8 mph - N/A   Scattered Clouds
11:35 PM 46.8 °F - 33.8 °F 61% 30.05 in 10.0 mi SE 6.9 mph - N/A   Clear
11:55 PM 46.4 °F 42.4 °F 33.8 °F 62% 30.03 in 10.0 mi SE 8.1 mph - N/A   Clear